Time;durP1;ratioP1;P1;durP2;ratioP2;P2;SDS_P1;SDS_P2;PMS_P1;PMS_P2;Temp;Humidity;BMP_temperature;BMP_pressure;BME280_temperature;BME280_humidity;BME280_pressure;Samples;Min_cycle;Max_cycle;Signal;HPM_P1;HPM_P2
2022/03/22 00:00:56;;;;;;;49.22;36.10;;;;;;;;;;6263030;22;20070;-82
2022/03/22 00:03:24;;;;;;;50.50;36.67;;;;;;;;;;6238056;22;20020;-83
2022/03/22 00:05:51;;;;;;;51.55;35.92;;;;;;;;;;6236443;22;20031;-83
2022/03/22 00:08:18;;;;;;;51.40;37.22;;;;;;;;;;6265513;22;20026;-82
2022/03/22 00:10:44;;;;;;;49.97;36.40;;;;;;;;;;6237528;22;20461;-87
2022/03/22 00:13:11;;;;;;;59.00;37.15;;;;;;;;;;6266178;22;20024;-82
2022/03/22 00:15:37;;;;;;;52.90;38.20;;;;;;;;;;6268445;22;20019;-83
2022/03/22 00:18:04;;;;;;;51.20;36.70;;;;;;;;;;6267833;22;20055;-83
2022/03/22 00:20:31;;;;;;;52.35;37.35;;;;;;;;;;6268963;22;20023;-84
2022/03/22 00:22:57;;;;;;;50.83;36.85;;;;;;;;;;6268026;22;20020;-83
2022/03/22 00:25:24;;;;;;;55.13;36.80;;;;;;;;;;6271371;22;20020;-84
2022/03/22 00:27:52;;;;;;;57.20;38.95;;;;;;;;;;6240954;22;20810;-82
2022/03/22 00:30:23;;;;;;;53.50;38.30;;;;;;;;;;6268549;22;20643;-82
2022/03/22 00:32:54;;;;;;;51.05;37.65;;;;;;;;;;6265303;22;20110;-82
2022/03/22 00:35:39;;;;;;;53.05;38.55;;;;;;;;;;6268657;22;20011;-82
2022/03/22 00:38:06;;;;;;;52.72;37.10;;;;;;;;;;6270153;22;20454;-82
2022/03/22 00:40:33;;;;;;;51.70;37.03;;;;;;;;;;6268352;22;20439;-82
2022/03/22 00:42:59;;;;;;;53.95;36.97;;;;;;;;;;6269219;22;20019;-82
2022/03/22 00:45:27;;;;;;;59.92;39.78;;;;;;;;;;6266365;22;20102;-83
2022/03/22 00:47:54;;;;;;;55.47;38.97;;;;;;;;;;6273524;22;20352;-83
2022/03/22 00:50:26;;;;;;;55.58;38.90;;;;;;;;;;6252433;22;20020;-82
2022/03/22 00:52:53;;;;;;;66.38;40.67;;;;;;;;;;6272920;22;20509;-82
2022/03/22 00:55:23;;;;;;;63.60;42.80;;;;;;;;;;6245829;22;20066;-83
2022/03/22 00:57:49;;;;;;;70.28;44.10;;;;;;;;;;6269811;22;20452;-83
2022/03/22 01:00:16;;;;;;;63.47;43.10;;;;;;;;;;6266518;22;20020;-82
2022/03/22 01:02:43;;;;;;;63.70;42.63;;;;;;;;;;6266239;22;20390;-87
2022/03/22 01:05:15;;;;;;;62.83;43.80;;;;;;;;;;6269813;22;20015;-82
2022/03/22 01:07:42;;;;;;;63.00;45.40;;;;;;;;;;6239737;22;20023;-82
2022/03/22 01:10:09;;;;;;;65.75;46.38;;;;;;;;;;6265824;22;20077;-82
2022/03/22 01:12:36;;;;;;;66.15;46.25;;;;;;;;;;6266874;22;20019;-82
2022/03/22 01:15:06;;;;;;;66.30;46.45;;;;;;;;;;6241387;22;20015;-82
2022/03/22 01:17:33;;;;;;;67.38;48.55;;;;;;;;;;6267751;22;20026;-82
2022/03/22 01:20:02;;;;;;;64.22;47.20;;;;;;;;;;6265943;22;20343;-81
2022/03/22 01:22:28;;;;;;;66.68;47.42;;;;;;;;;;6267581;22;20432;-84
2022/03/22 01:24:54;;;;;;;67.25;48.50;;;;;;;;;;6265869;22;20100;-89
2022/03/22 01:27:21;;;;;;;66.22;47.30;;;;;;;;;;6240842;22;20020;-85
2022/03/22 01:29:48;;;;;;;71.00;48.97;;;;;;;;;;6217697;22;20103;-82
2022/03/22 01:32:14;;;;;;;70.85;48.60;;;;;;;;;;6269783;22;20015;-82
2022/03/22 01:34:42;;;;;;;69.97;47.78;;;;;;;;;;6269628;22;20514;-88
2022/03/22 01:37:11;;;;;;;71.40;48.70;;;;;;;;;;6268612;22;20016;-81
2022/03/22 01:39:38;;;;;;;71.55;50.28;;;;;;;;;;6269709;22;20487;-82
2022/03/22 01:42:04;;;;;;;71.80;50.00;;;;;;;;;;6264987;22;20019;-82
2022/03/22 01:44:30;;;;;;;70.75;50.72;;;;;;;;;;6265664;22;20650;-81
2022/03/22 01:47:03;;;;;;;73.82;50.90;;;;;;;;;;6265750;22;20027;-82
2022/03/22 01:49:31;;;;;;;76.72;51.60;;;;;;;;;;6266323;22;20054;-82
2022/03/22 01:51:57;;;;;;;77.57;52.33;;;;;;;;;;6269375;22;20016;-82
2022/03/22 01:54:24;;;;;;;72.88;50.38;;;;;;;;;;6275907;22;20463;-81
2022/03/22 01:56:50;;;;;;;77.90;50.13;;;;;;;;;;6276567;22;20054;-82
2022/03/22 01:59:17;;;;;;;74.53;50.80;;;;;;;;;;6277212;22;20162;-82
2022/03/22 02:07:15;;;;;;;69.47;50.38;;;;;;;;;;6275438;22;20843;-82
2022/03/22 02:09:41;;;;;;;68.75;50.17;;;;;;;;;;6280040;22;20023;-82
2022/03/22 02:12:09;;;;;;;69.65;50.20;;;;;;;;;;6274806;22;20016;-83
2022/03/22 02:14:35;;;;;;;72.03;49.42;;;;;;;;;;6242489;22;20099;-82
2022/03/22 02:17:09;;;;;;;69.70;48.78;;;;;;;;;;6241503;22;20020;-81
2022/03/22 02:19:39;;;;;;;65.50;47.65;;;;;;;;;;6267281;22;20112;-81
2022/03/22 02:22:07;;;;;;;68.38;48.63;;;;;;;;;;6242370;22;20019;-82
2022/03/22 02:24:33;;;;;;;63.90;47.33;;;;;;;;;;6268337;22;20073;-82
2022/03/22 02:26:59;;;;;;;67.05;47.85;;;;;;;;;;6271576;22;20019;-82
2022/03/22 02:29:25;;;;;;;66.45;48.33;;;;;;;;;;6270160;22;20020;-82
2022/03/22 02:31:54;;;;;;;67.72;46.15;;;;;;;;;;6247076;22;20015;-81
2022/03/22 02:34:20;;;;;;;68.90;48.15;;;;;;;;;;6278872;22;20098;-81
2022/03/22 02:36:46;;;;;;;66.28;46.10;;;;;;;;;;6278642;22;20022;-82
2022/03/22 02:39:13;;;;;;;67.05;46.55;;;;;;;;;;6273182;22;20094;-82
2022/03/22 02:41:39;;;;;;;65.18;46.33;;;;;;;;;;6269861;22;20031;-84
2022/03/22 02:44:05;;;;;;;65.72;48.05;;;;;;;;;;6270156;22;20022;-80
2022/03/22 02:46:31;;;;;;;67.53;47.20;;;;;;;;;;6267281;22;20015;-81
2022/03/22 02:48:57;;;;;;;67.47;46.03;;;;;;;;;;6266258;22;20016;-82
2022/03/22 02:51:23;;;;;;;67.97;46.75;;;;;;;;;;6266317;22;20026;-81
2022/03/22 02:53:50;;;;;;;67.72;46.10;;;;;;;;;;6269360;22;20027;-80
2022/03/22 02:56:16;;;;;;;65.72;45.60;;;;;;;;;;6266423;22;20020;-81
2022/03/22 02:58:42;;;;;;;67.15;46.20;;;;;;;;;;6268895;22;20531;-81
2022/03/22 03:01:13;;;;;;;61.90;45.17;;;;;;;;;;6267946;22;20027;-81
2022/03/22 03:03:40;;;;;;;61.95;44.10;;;;;;;;;;6268668;22;21268;-82
2022/03/22 03:06:06;;;;;;;62.85;44.40;;;;;;;;;;6270467;22;20019;-81
2022/03/22 03:08:32;;;;;;;65.32;43.80;;;;;;;;;;6270861;22;20016;-81
2022/03/22 03:10:58;;;;;;;65.10;44.00;;;;;;;;;;6268733;22;20525;-81
2022/03/22 03:13:24;;;;;;;60.35;43.30;;;;;;;;;;6244207;22;20452;-81
2022/03/22 03:15:50;;;;;;;60.67;42.75;;;;;;;;;;6270944;22;20390;-81
2022/03/22 03:18:17;;;;;;;59.25;42.40;;;;;;;;;;6271489;22;20011;-80
2022/03/22 03:20:44;;;;;;;60.10;42.55;;;;;;;;;;6243286;22;20030;-81
2022/03/22 03:23:10;;;;;;;63.70;44.45;;;;;;;;;;6272846;22;20106;-82
2022/03/22 03:25:36;;;;;;;57.42;41.83;;;;;;;;;;6221070;22;20087;-83
2022/03/22 03:28:03;;;;;;;60.30;43.15;;;;;;;;;;6248163;22;20756;-81
2022/03/22 03:30:30;;;;;;;65.47;43.53;;;;;;;;;;6273471;22;20022;-81
2022/03/22 03:32:56;;;;;;;57.92;42.08;;;;;;;;;;6273020;22;20110;-81
2022/03/22 03:35:22;;;;;;;58.70;41.25;;;;;;;;;;6268368;22;20521;-83
2022/03/22 03:37:48;;;;;;;68.10;45.10;;;;;;;;;;6268269;22;20015;-82
2022/03/22 03:40:15;;;;;;;60.92;42.13;;;;;;;;;;6271251;22;20028;-81
2022/03/22 03:42:44;;;;;;;65.07;46.67;;;;;;;;;;6266305;22;20022;-82
2022/03/22 03:47:56;;;;;;;70.45;47.08;;;;;;;;;;6265629;22;20028;-82
2022/03/22 03:50:23;;;;;;;80.13;47.42;;;;;;;;;;6242430;22;20097;-86
2022/03/22 03:52:49;;;;;;;64.70;43.58;;;;;;;;;;6267229;22;20078;-84
2022/03/22 03:55:15;;;;;;;68.57;44.08;;;;;;;;;;6265915;22;20019;-81
2022/03/22 03:57:42;;;;;;;63.47;43.55;;;;;;;;;;6264828;22;20583;-83
2022/03/22 04:00:08;;;;;;;58.92;42.72;;;;;;;;;;6263097;22;20059;-82
2022/03/22 04:02:34;;;;;;;65.65;45.83;;;;;;;;;;6266680;22;20047;-82
2022/03/22 04:05:00;;;;;;;65.18;44.33;;;;;;;;;;6267306;22;20078;-82
2022/03/22 04:07:27;;;;;;;57.15;40.45;;;;;;;;;;6268290;22;20062;-83
2022/03/22 04:09:57;;;;;;;58.33;40.30;;;;;;;;;;6240685;22;20070;-83
2022/03/22 04:12:23;;;;;;;61.58;43.33;;;;;;;;;;6269549;22;20020;-82
2022/03/22 04:14:51;;;;;;;60.17;42.00;;;;;;;;;;6238987;22;20509;-81
2022/03/22 04:17:17;;;;;;;60.67;41.85;;;;;;;;;;6271098;22;20340;-82
2022/03/22 04:19:45;;;;;;;64.32;40.28;;;;;;;;;;6265629;22;20063;-80
2022/03/22 04:22:12;;;;;;;59.58;40.85;;;;;;;;;;6263306;22;20100;-81
2022/03/22 04:24:38;;;;;;;56.95;39.17;;;;;;;;;;6268462;22;20020;-81
2022/03/22 04:32:43;;;;;;;59.58;40.58;;;;;;;;;;6265648;22;20015;-81
2022/03/22 04:35:13;;;;;;;55.13;38.10;;;;;;;;;;6264420;22;20027;-84
2022/03/22 04:37:40;;;;;;;59.38;38.05;;;;;;;;;;6265579;22;20016;-82
2022/03/22 04:40:07;;;;;;;59.53;39.10;;;;;;;;;;6236952;22;20016;-83
2022/03/22 04:42:34;;;;;;;54.75;40.72;;;;;;;;;;6236955;22;20043;-84
2022/03/22 04:45:00;;;;;;;56.25;37.60;;;;;;;;;;6267282;22;20019;-84
2022/03/22 04:47:26;;;;;;;62.70;36.72;;;;;;;;;;6266688;22;20054;-84
2022/03/22 04:49:53;;;;;;;50.42;35.83;;;;;;;;;;6240429;22;20025;-83
2022/03/22 04:57:53;;;;;;;56.90;35.60;;;;;;;;;;6279102;22;20095;-84
2022/03/22 05:00:19;;;;;;;53.35;35.85;;;;;;;;;;6245517;22;20012;-84
2022/03/22 05:02:47;;;;;;;49.17;35.47;;;;;;;;;;6270661;22;20482;-83
2022/03/22 05:05:15;;;;;;;46.92;33.85;;;;;;;;;;6249108;22;20047;-84
2022/03/22 05:07:41;;;;;;;51.47;35.00;;;;;;;;;;6273397;22;20016;-82
2022/03/22 05:10:08;;;;;;;53.45;36.42;;;;;;;;;;6273315;22;20024;-81
2022/03/22 05:12:37;;;;;;;49.47;34.58;;;;;;;;;;6270237;22;20049;-83
2022/03/22 05:15:04;;;;;;;51.00;35.20;;;;;;;;;;6241020;22;20042;-81
2022/03/22 05:17:30;;;;;;;53.53;35.08;;;;;;;;;;6269443;22;20034;-82
2022/03/22 05:19:56;;;;;;;57.38;35.90;;;;;;;;;;6264610;22;20016;-82
2022/03/22 05:22:22;;;;;;;47.67;34.15;;;;;;;;;;6268182;22;20042;-83
2022/03/22 05:24:48;;;;;;;51.33;35.35;;;;;;;;;;6265383;22;20482;-82
2022/03/22 05:27:15;;;;;;;50.92;35.92;;;;;;;;;;6266168;22;20015;-82
2022/03/22 05:29:42;;;;;;;55.10;35.50;;;;;;;;;;6236913;22;20073;-84
2022/03/22 05:32:08;;;;;;;47.88;34.47;;;;;;;;;;6264806;22;20131;-82
2022/03/22 05:34:35;;;;;;;48.97;34.83;;;;;;;;;;6237671;22;20082;-83
2022/03/22 05:37:01;;;;;;;52.60;35.33;;;;;;;;;;6264435;22;20011;-82
2022/03/22 05:39:27;;;;;;;60.42;35.97;;;;;;;;;;6263888;22;20019;-85
2022/03/22 05:41:53;;;;;;;52.25;35.53;;;;;;;;;;6262052;22;20023;-81
2022/03/22 05:44:20;;;;;;;46.90;34.15;;;;;;;;;;6266195;22;20122;-83
2022/03/22 05:46:46;;;;;;;52.45;35.47;;;;;;;;;;6262214;22;20352;-86
2022/03/22 05:49:13;;;;;;;56.85;34.95;;;;;;;;;;6264824;22;20098;-81
2022/03/22 05:51:39;;;;;;;51.47;34.75;;;;;;;;;;6265052;22;20045;-84
2022/03/22 05:54:05;;;;;;;46.25;33.60;;;;;;;;;;6264383;22;20065;-83
2022/03/22 05:56:32;;;;;;;49.42;34.17;;;;;;;;;;6265260;22;20442;-83
2022/03/22 05:58:59;;;;;;;51.33;33.83;;;;;;;;;;6262630;22;20094;-83
2022/03/22 06:01:27;;;;;;;51.78;32.65;;;;;;;;;;6238967;22;20095;-86
2022/03/22 06:03:53;;;;;;;53.13;33.40;;;;;;;;;;6263818;22;20065;-83
2022/03/22 06:06:19;;;;;;;55.60;35.53;;;;;;;;;;6266028;22;20035;-86
2022/03/22 06:08:45;;;;;;;51.55;34.03;;;;;;;;;;6264048;22;20126;-83
2022/03/22 06:11:12;;;;;;;49.45;33.83;;;;;;;;;;6249581;22;20456;-83
2022/03/22 06:13:38;;;;;;;46.03;33.10;;;;;;;;;;6271939;22;20078;-83
2022/03/22 06:16:05;;;;;;;48.22;33.80;;;;;;;;;;6269009;22;20356;-83
2022/03/22 06:18:32;;;;;;;49.00;32.95;;;;;;;;;;6245381;22;20020;-83
2022/03/22 06:20:58;;;;;;;49.90;32.72;;;;;;;;;;6267223;22;20012;-83
2022/03/22 06:23:24;;;;;;;44.80;32.80;;;;;;;;;;6268371;22;20456;-83
2022/03/22 06:25:51;;;;;;;51.65;33.13;;;;;;;;;;6268310;22;20038;-90
2022/03/22 06:28:24;;;;;;;46.53;32.15;;;;;;;;;;6270231;22;20145;-83
2022/03/22 06:30:51;;;;;;;52.72;33.83;;;;;;;;;;6239465;22;20416;-88
2022/03/22 06:33:17;;;;;;;48.55;33.35;;;;;;;;;;6268247;22;20012;-83
2022/03/22 06:35:44;;;;;;;47.65;33.83;;;;;;;;;;6268741;22;20359;-83
2022/03/22 06:38:10;;;;;;;54.25;32.70;;;;;;;;;;6268174;22;20015;-82
2022/03/22 06:40:40;;;;;;;46.70;32.58;;;;;;;;;;6268263;22;20024;-81
2022/03/22 06:43:09;;;;;;;52.70;33.60;;;;;;;;;;6239950;22;20021;-85
2022/03/22 06:45:35;;;;;;;49.25;32.30;;;;;;;;;;6268018;22;20019;-83
2022/03/22 06:48:01;;;;;;;50.92;33.65;;;;;;;;;;6265806;22;20098;-82
2022/03/22 06:50:28;;;;;;;52.25;33.38;;;;;;;;;;6240793;22;20019;-82
2022/03/22 06:52:54;;;;;;;48.30;33.03;;;;;;;;;;6268222;22;20013;-83
2022/03/22 06:55:24;;;;;;;52.88;33.25;;;;;;;;;;6268086;22;20038;-83
2022/03/22 06:57:54;;;;;;;47.88;33.30;;;;;;;;;;6267311;22;20016;-83
2022/03/22 07:00:20;;;;;;;50.53;33.70;;;;;;;;;;6267167;22;20070;-82
2022/03/22 07:02:47;;;;;;;52.08;34.22;;;;;;;;;;6269466;22;20016;-83
2022/03/22 07:05:13;;;;;;;54.00;33.75;;;;;;;;;;6267055;22;20027;-83
2022/03/22 07:07:40;;;;;;;48.08;33.95;;;;;;;;;;6270739;22;20031;-82
2022/03/22 07:10:07;;;;;;;50.45;35.10;;;;;;;;;;6271459;22;20026;-82
2022/03/22 07:12:33;;;;;;;49.88;34.00;;;;;;;;;;6277613;22;20016;-81
2022/03/22 07:15:01;;;;;;;49.58;33.72;;;;;;;;;;6280849;22;20089;-82
2022/03/22 07:17:27;;;;;;;51.97;35.33;;;;;;;;;;6284575;22;20039;-83
2022/03/22 07:19:53;;;;;;;50.17;34.38;;;;;;;;;;6269526;22;20089;-82
2022/03/22 07:22:20;;;;;;;55.25;34.58;;;;;;;;;;6268431;22;20471;-83
2022/03/22 07:24:46;;;;;;;47.28;33.35;;;;;;;;;;6268592;22;20023;-82
2022/03/22 07:27:12;;;;;;;46.78;34.13;;;;;;;;;;6280565;22;20015;-83
2022/03/22 07:29:39;;;;;;;46.30;34.53;;;;;;;;;;6294203;22;20027;-91
2022/03/22 07:32:05;;;;;;;49.90;34.72;;;;;;;;;;6289339;22;20007;-95
2022/03/22 07:34:36;;;;;;;49.70;35.60;;;;;;;;;;6290219;22;20023;-92
2022/03/22 07:37:02;;;;;;;53.55;34.25;;;;;;;;;;6289940;22;20483;-93
2022/03/22 07:39:34;;;;;;;50.40;34.83;;;;;;;;;;6262107;22;20031;-94
2022/03/22 07:42:00;;;;;;;51.97;35.60;;;;;;;;;;6289232;22;20050;-90
2022/03/22 07:44:33;;;;;;;49.25;34.45;;;;;;;;;;6291629;22;20049;-89
2022/03/22 07:46:59;;;;;;;51.50;35.35;;;;;;;;;;6280043;22;20027;-87
2022/03/22 07:54:55;;;;;;;51.35;33.10;;;;;;;;;;6265727;22;20024;-88
2022/03/22 07:57:21;;;;;;;49.15;34.70;;;;;;;;;;6292576;22;20022;-95
2022/03/22 07:59:47;;;;;;;53.08;35.13;;;;;;;;;;6292188;22;20039;-83
2022/03/22 08:02:13;;;;;;;48.63;33.28;;;;;;;;;;6283361;22;20396;-91
2022/03/22 08:04:39;;;;;;;52.67;34.83;;;;;;;;;;6290463;22;20019;-91
2022/03/22 08:07:07;;;;;;;50.55;34.70;;;;;;;;;;6284363;22;20020;-88
2022/03/22 08:09:35;;;;;;;48.63;34.03;;;;;;;;;;6255193;22;20016;-89
2022/03/22 08:12:01;;;;;;;52.40;33.00;;;;;;;;;;6242575;23;20127;-83
2022/03/22 08:14:27;;;;;;;54.20;35.10;;;;;;;;;;6239188;23;20018;-82
2022/03/22 08:16:53;;;;;;;46.92;33.70;;;;;;;;;;6238915;23;20020;-83
2022/03/22 08:19:19;;;;;;;53.00;36.05;;;;;;;;;;6264403;22;20020;-82
2022/03/22 08:21:48;;;;;;;47.72;35.88;;;;;;;;;;6241692;23;20487;-82
2022/03/22 08:24:15;;;;;;;49.63;34.20;;;;;;;;;;6239928;23;20035;-83
2022/03/22 08:26:41;;;;;;;51.67;33.15;;;;;;;;;;6239795;23;20022;-82
2022/03/22 08:29:07;;;;;;;50.10;34.30;;;;;;;;;;6238979;23;20544;-83
2022/03/22 08:31:35;;;;;;;51.33;35.17;;;;;;;;;;6236260;23;20027;-81
2022/03/22 08:34:08;;;;;;;51.00;35.20;;;;;;;;;;6235918;23;20016;-82
2022/03/22 08:36:34;;;;;;;50.63;34.70;;;;;;;;;;6240435;23;20016;-84
2022/03/22 08:39:01;;;;;;;47.63;35.72;;;;;;;;;;6239417;23;20062;-84
2022/03/22 08:41:27;;;;;;;48.53;34.75;;;;;;;;;;6260396;22;20345;-87
2022/03/22 08:43:53;;;;;;;50.13;32.70;;;;;;;;;;6260944;22;20020;-87
2022/03/22 08:46:24;;;;;;;47.85;35.53;;;;;;;;;;6236531;23;20057;-87
2022/03/22 08:48:51;;;;;;;44.35;33.30;;;;;;;;;;6211438;23;20575;-89
2022/03/22 08:51:19;;;;;;;46.60;31.25;;;;;;;;;;6233806;23;20024;-86
2022/03/22 08:53:46;;;;;;;48.08;33.22;;;;;;;;;;6237840;23;20024;-86
2022/03/22 08:56:12;;;;;;;50.83;32.15;;;;;;;;;;6237151;23;20020;-86
2022/03/22 08:58:39;;;;;;;51.25;32.78;;;;;;;;;;6236657;23;20499;-86
2022/03/22 09:01:06;;;;;;;52.13;31.13;;;;;;;;;;6236021;23;20027;-87
2022/03/22 09:03:35;;;;;;;41.05;31.40;;;;;;;;;;6234285;23;20020;-86
2022/03/22 09:06:16;;;;;;;48.38;32.53;;;;;;;;;;6234566;23;20356;-85
2022/03/22 09:08:42;;;;;;;48.63;32.85;;;;;;;;;;6258806;22;20016;-87
2022/03/22 09:11:09;;;;;;;45.83;31.50;;;;;;;;;;6260627;22;20028;-85
2022/03/22 09:13:37;;;;;;;43.83;30.45;;;;;;;;;;6232188;23;20031;-85
2022/03/22 09:16:04;;;;;;;43.97;31.92;;;;;;;;;;6260431;22;20020;-87
2022/03/22 09:18:30;;;;;;;40.28;30.98;;;;;;;;;;6234383;23;20027;-86
2022/03/22 09:20:56;;;;;;;44.70;31.50;;;;;;;;;;6235274;23;20031;-87
2022/03/22 09:23:23;;;;;;;46.95;30.85;;;;;;;;;;6237563;23;20031;-89
2022/03/22 09:25:52;;;;;;;47.63;34.08;;;;;;;;;;6222566;23;20024;-86
2022/03/22 09:28:18;;;;;;;46.28;35.33;;;;;;;;;;6232365;23;20016;-85
2022/03/22 09:30:48;;;;;;;50.83;35.83;;;;;;;;;;6210649;23;20039;-85
2022/03/22 09:33:14;;;;;;;48.58;35.95;;;;;;;;;;6234405;23;20024;-85
2022/03/22 09:35:40;;;;;;;54.35;34.88;;;;;;;;;;6242058;23;20099;-85
2022/03/22 09:38:09;;;;;;;47.03;35.72;;;;;;;;;;6240918;23;20038;-86
2022/03/22 09:40:36;;;;;;;54.17;34.90;;;;;;;;;;6259716;22;20731;-85
2022/03/22 09:43:02;;;;;;;51.60;37.35;;;;;;;;;;6237002;23;20027;-86
2022/03/22 09:45:29;;;;;;;51.80;36.53;;;;;;;;;;6257473;22;20106;-84
2022/03/22 09:47:56;;;;;;;54.50;37.40;;;;;;;;;;6236382;23;20147;-93
2022/03/22 09:53:12;;;;;;;55.15;36.22;;;;;;;;;;6235759;23;20071;-88
2022/03/22 09:55:38;;;;;;;49.75;34.55;;;;;;;;;;6236144;23;20012;-89
2022/03/22 09:58:08;;;;;;;51.28;35.88;;;;;;;;;;6236343;23;20431;-86
2022/03/22 10:00:34;;;;;;;51.80;35.20;;;;;;;;;;6234741;23;20055;-86
2022/03/22 10:03:01;;;;;;;48.65;35.28;;;;;;;;;;6235315;23;20016;-89
2022/03/22 10:05:28;;;;;;;51.25;34.70;;;;;;;;;;6235239;23;20016;-87
2022/03/22 10:08:05;;;;;;;45.22;34.58;;;;;;;;;;6259895;22;20020;-87
2022/03/22 10:10:31;;;;;;;42.78;33.22;;;;;;;;;;6236908;23;20027;-86
2022/03/22 10:13:04;;;;;;;54.95;34.53;;;;;;;;;;6235785;23;20020;-88
2022/03/22 10:15:30;;;;;;;44.95;34.58;;;;;;;;;;6235434;23;20031;-83
2022/03/22 10:18:04;;;;;;;58.13;38.55;;;;;;;;;;6236323;23;20020;-83
2022/03/22 10:20:32;;;;;;;51.75;34.88;;;;;;;;;;6258639;22;20020;-87
2022/03/22 10:22:59;;;;;;;47.95;34.42;;;;;;;;;;6236668;23;20021;-86
2022/03/22 10:25:25;;;;;;;52.03;36.28;;;;;;;;;;6234548;23;20074;-87
2022/03/22 10:27:55;;;;;;;60.90;35.60;;;;;;;;;;6236594;23;20065;-88
2022/03/22 10:30:21;;;;;;;48.42;34.67;;;;;;;;;;6258720;22;20024;-86
2022/03/22 10:32:51;;;;;;;44.50;34.45;;;;;;;;;;6235613;23;20016;-83
2022/03/22 10:35:22;;;;;;;50.33;35.83;;;;;;;;;;6235897;23;20432;-87
2022/03/22 10:37:50;;;;;;;50.25;37.05;;;;;;;;;;6234599;22;20012;-85
2022/03/22 10:40:23;;;;;;;41.92;35.40;;;;;;;;;;6236276;23;20392;-92
2022/03/22 10:42:54;;;;;;;51.33;35.60;;;;;;;;;;6258757;22;20441;-85
2022/03/22 10:45:20;;;;;;;49.53;36.72;;;;;;;;;;6235824;23;20020;-87
2022/03/22 10:47:46;;;;;;;46.42;35.45;;;;;;;;;;6208534;23;20099;-85
2022/03/22 10:50:13;;;;;;;47.63;35.28;;;;;;;;;;6234131;23;20111;-86
2022/03/22 10:52:48;;;;;;;47.97;33.50;;;;;;;;;;6234110;23;20027;-87
2022/03/22 10:55:19;;;;;;;46.22;32.67;;;;;;;;;;6235412;23;20035;-88
2022/03/22 10:57:47;;;;;;;44.05;34.08;;;;;;;;;;6236383;23;20043;-86
2022/03/22 11:00:13;;;;;;;46.67;33.08;;;;;;;;;;6234792;23;20020;-87
2022/03/22 11:02:40;;;;;;;43.03;34.00;;;;;;;;;;6235440;23;20099;-84
2022/03/22 11:05:07;;;;;;;46.60;33.95;;;;;;;;;;6235326;23;20027;-91
2022/03/22 11:07:38;;;;;;;47.17;33.33;;;;;;;;;;6235591;23;20020;-87
2022/03/22 11:10:05;;;;;;;45.38;33.70;;;;;;;;;;6236103;23;20020;-87
2022/03/22 11:12:34;;;;;;;45.38;32.85;;;;;;;;;;6235037;23;20095;-85
2022/03/22 11:15:01;;;;;;;46.90;33.13;;;;;;;;;;6235992;23;20082;-87
2022/03/22 11:17:29;;;;;;;43.67;32.55;;;;;;;;;;6234860;23;20543;-86
2022/03/22 11:19:57;;;;;;;48.28;32.30;;;;;;;;;;6260571;22;20016;-89
2022/03/22 11:22:23;;;;;;;45.10;32.42;;;;;;;;;;6265182;22;20059;-88
2022/03/22 11:25:05;;;;;;;39.03;32.53;;;;;;;;;;6267468;22;20207;-89
2022/03/22 11:27:32;;;;;;;43.88;32.70;;;;;;;;;;6237044;23;20013;-86
2022/03/22 11:29:58;;;;;;;44.95;32.80;;;;;;;;;;6259903;22;20016;-88
2022/03/22 11:35:18;;;;;;;42.65;32.38;;;;;;;;;;6232253;23;20065;-84
2022/03/22 11:37:54;;;;;;;40.85;32.13;;;;;;;;;;6236331;23;20403;-88
2022/03/22 11:43:10;;;;;;;40.97;32.88;;;;;;;;;;6235395;23;20035;-88
2022/03/22 11:45:49;;;;;;;46.03;33.28;;;;;;;;;;6235201;23;20100;-89
2022/03/22 11:48:16;;;;;;;42.50;34.30;;;;;;;;;;6258874;22;20024;-89
2022/03/22 11:50:46;;;;;;;39.50;33.17;;;;;;;;;;6234754;23;20020;-86
2022/03/22 11:53:20;;;;;;;41.25;33.05;;;;;;;;;;6239988;23;20073;-88
2022/03/22 11:55:52;;;;;;;44.15;33.10;;;;;;;;;;6237075;23;20503;-88
2022/03/22 11:58:20;;;;;;;40.33;33.88;;;;;;;;;;6234829;23;20035;-85
2022/03/22 12:00:55;;;;;;;40.53;33.25;;;;;;;;;;6231655;23;20027;-88
2022/03/22 12:03:25;;;;;;;44.15;32.22;;;;;;;;;;6207627;23;20043;-86
2022/03/22 12:05:54;;;;;;;43.22;33.42;;;;;;;;;;6231976;23;20268;-88
2022/03/22 12:08:20;;;;;;;46.42;34.05;;;;;;;;;;6235384;23;20107;-86
2022/03/22 12:10:51;;;;;;;41.22;33.92;;;;;;;;;;6234110;23;20444;-89
2022/03/22 12:13:18;;;;;;;41.38;33.42;;;;;;;;;;6235765;23;20099;-89
2022/03/22 12:15:44;;;;;;;42.08;33.08;;;;;;;;;;6235426;23;20027;-89
2022/03/22 12:18:12;;;;;;;43.47;32.42;;;;;;;;;;6233656;23;20017;-89
2022/03/22 12:20:38;;;;;;;44.67;33.35;;;;;;;;;;6235322;23;20065;-89
2022/03/22 12:23:06;;;;;;;45.88;33.10;;;;;;;;;;6233755;23;20708;-88
2022/03/22 12:25:34;;;;;;;40.60;31.33;;;;;;;;;;6235968;23;20882;-87
2022/03/22 12:28:02;;;;;;;42.92;32.83;;;;;;;;;;6234062;23;20030;-90
2022/03/22 12:30:29;;;;;;;40.72;30.33;;;;;;;;;;6235937;23;20081;-89
2022/03/22 12:32:56;;;;;;;43.53;32.35;;;;;;;;;;6233856;23;20075;-87
2022/03/22 12:35:23;;;;;;;45.15;31.95;;;;;;;;;;6233937;23;20407;-83
2022/03/22 12:37:51;;;;;;;41.90;31.20;;;;;;;;;;6232853;23;20067;-90
2022/03/22 12:40:17;;;;;;;45.05;31.83;;;;;;;;;;6234669;23;20027;-90
2022/03/22 12:42:44;;;;;;;39.72;33.03;;;;;;;;;;6235509;23;20111;-83
2022/03/22 12:45:11;;;;;;;40.88;33.10;;;;;;;;;;6207240;23;20030;-87
2022/03/22 12:47:41;;;;;;;42.10;32.80;;;;;;;;;;6234651;23;20105;-83
2022/03/22 12:50:09;;;;;;;45.78;32.88;;;;;;;;;;6233449;23;20031;-89
2022/03/22 12:52:36;;;;;;;44.50;34.85;;;;;;;;;;6234634;23;20174;-87
2022/03/22 12:55:03;;;;;;;40.35;32.85;;;;;;;;;;6236503;23;20016;-82
2022/03/22 12:57:29;;;;;;;40.30;33.03;;;;;;;;;;6235762;23;20022;-90
2022/03/22 12:59:56;;;;;;;39.95;32.88;;;;;;;;;;6236342;23;20074;-83
2022/03/22 13:02:22;;;;;;;45.17;34.10;;;;;;;;;;6234445;23;20113;-83
2022/03/22 13:04:50;;;;;;;42.63;31.80;;;;;;;;;;6236716;23;20019;-82
2022/03/22 13:07:27;;;;;;;44.03;32.92;;;19.70;99.90;;;;;;6234897;23;20016;-82
2022/03/22 13:12:39;;;;;;;48.80;34.03;;;;;;;;;;6237209;23;20087;-82
2022/03/22 13:15:12;;;;;;;46.60;35.10;;;;;;;;;;6233981;23;20047;-88
2022/03/22 13:17:42;;;;;;;41.20;33.72;;;;;;;;;;6237582;23;20019;-90
2022/03/22 13:20:18;;;;;;;47.17;32.53;;;;;;;;;;6234780;23;20016;-88
2022/03/22 13:22:50;;;;;;;43.40;33.08;;;;;;;;;;6237421;23;20361;-89
2022/03/22 13:25:18;;;;;;;47.92;34.10;;;;;;;;;;6236680;23;20074;-90
2022/03/22 13:27:52;;;;;;;42.75;33.70;;;;;;;;;;6236257;23;20023;-85
2022/03/22 13:30:20;;;;;;;45.58;34.60;;;;;;;;;;6236679;23;20031;-87
2022/03/22 13:32:46;;;;;;;58.65;33.67;;;;;;;;;;6235560;23;20139;-89
2022/03/22 13:35:13;;;;;;;44.72;33.90;;;;;;;;;;6237661;23;21032;-85
2022/03/22 13:37:43;;;;;;;53.72;35.10;;;;;;;;;;6234554;23;20364;-85
2022/03/22 13:40:10;;;;;;;47.33;34.83;;;;;;;;;;6235782;23;20110;-84
2022/03/22 13:42:36;;;;;;;48.30;34.67;;;;;;;;;;6260651;22;20131;-87
2022/03/22 13:45:03;;;;;;;48.95;34.72;;;;;;;;;;6261578;22;20028;-87
2022/03/22 13:47:45;;;;;;;55.30;34.30;;;;;;;;;;6259646;22;20012;-87
2022/03/22 13:50:16;;;;;;;50.92;34.38;;;;;;;;;;6237367;23;20955;-87
2022/03/22 13:52:43;;;;;;;44.95;33.72;;;;;;;;;;6238694;23;20027;-86
2022/03/22 13:55:19;;;;;;;52.50;34.30;;;;;;;;;;6235985;23;20062;-87
2022/03/22 13:57:53;;;;;;;57.95;35.92;;;;;;;;;;6261652;22;20072;-88
2022/03/22 14:00:20;;;;;;;43.97;33.72;;;;;;;;;;6250357;23;20056;-86
2022/03/22 14:02:46;;;;;;;44.20;35.47;;;;;;;;;;6257947;22;20016;-83
2022/03/22 14:05:12;;;;;;;48.13;35.80;;;;;;;;;;6255922;23;20024;-82
2022/03/22 14:07:38;;;;;;;47.33;35.55;;;;;;;;;;6278405;22;20020;-83
2022/03/22 14:10:05;;;;;;;48.22;36.25;;;;;;;;;;6256282;23;20020;-86
2022/03/22 14:12:31;;;;;;;47.00;35.22;;;;;;;;;;6250493;23;20021;-85
2022/03/22 14:14:57;;;;;;;54.95;35.28;;;;;;;;;;6252113;22;20024;-83
2022/03/22 14:17:23;;;;;;;53.90;37.55;;;;;;;;;;6254742;23;20016;-82
2022/03/22 14:19:49;;;;;;;53.30;37.08;;;;;;;;;;6259126;23;20020;-83
2022/03/22 14:22:15;;;;;;;44.88;37.33;;;;;;;;;;6249201;23;20074;-83
2022/03/22 14:24:41;;;;;;;47.72;38.00;;;;;;;;;;6239477;23;20031;-84
2022/03/22 14:27:08;;;;;;;48.45;38.92;;;;;;;;;;6239241;23;20031;-86
2022/03/22 14:29:34;;;;;;;51.42;39.40;;;;;;;;;;6239886;23;20052;-85
2022/03/22 14:32:00;;;;;;;56.33;40.65;;;;;;;;;;6238541;23;20016;-85
2022/03/22 14:37:29;;;;;;;52.58;38.88;;;;;;;;;;6240068;23;20016;-83
2022/03/22 14:39:55;;;;;;;50.03;39.22;;;;;;;;;;6237210;23;20016;-85
2022/03/22 14:42:24;;;;;;;50.75;37.67;;;;;;;;;;6240158;23;20037;-85
2022/03/22 14:44:52;;;;;;;50.15;37.92;;;;;;;;;;6235553;23;20020;-87
2022/03/22 14:47:18;;;;;;;53.90;38.85;;;;;;;;;;6237603;23;20020;-85
2022/03/22 14:49:51;;;;;;;53.65;38.55;;;;;;;;;;6236631;23;20012;-87
2022/03/22 14:55:03;;;;;;;52.78;38.55;;;;;;;;;;6235779;23;20574;-87
2022/03/22 15:00:14;;;;;;;53.42;37.28;;;;;;;;;;6236377;23;20206;-86
2022/03/22 15:02:44;;;;;;;61.40;39.55;;;;;;;;;;6235715;23;20105;-83